sensor_id;sensor_type;location;lat;lon;timestamp;temperature;humidity
18160;DHT22;9205;52.032;4.314;2023-08-17T00:02:10;18.60;1.00
18160;DHT22;9205;52.032;4.314;2023-08-17T00:04:38;18.70;1.00
18160;DHT22;9205;52.032;4.314;2023-08-17T00:07:06;18.70;1.00
18160;DHT22;9205;52.032;4.314;2023-08-17T00:09:34;18.60;1.00
18160;DHT22;9205;52.032;4.314;2023-08-17T00:12:01;18.60;1.00
18160;DHT22;9205;52.032;4.314;2023-08-17T00:14:29;18.50;1.00
18160;DHT22;9205;52.032;4.314;2023-08-17T00:16:57;18.50;1.00
18160;DHT22;9205;52.032;4.314;2023-08-17T00:19:24;18.50;1.00
18160;DHT22;9205;52.032;4.314;2023-08-17T00:21:51;18.50;1.00
18160;DHT22;9205;52.032;4.314;2023-08-17T00:24:20;18.40;1.00
18160;DHT22;9205;52.032;4.314;2023-08-17T00:26:47;18.40;1.00
18160;DHT22;9205;52.032;4.314;2023-08-17T00:29:15;18.40;1.00
18160;DHT22;9205;52.032;4.314;2023-08-17T00:31:42;18.40;1.00
18160;DHT22;9205;52.032;4.314;2023-08-17T00:34:10;18.30;1.00
18160;DHT22;9205;52.032;4.314;2023-08-17T00:36:37;18.30;1.00
18160;DHT22;9205;52.032;4.314;2023-08-17T00:39:04;18.40;1.00
18160;DHT22;9205;52.032;4.314;2023-08-17T00:41:33;18.30;1.00
18160;DHT22;9205;52.032;4.314;2023-08-17T00:44:00;18.20;1.00
18160;DHT22;9205;52.032;4.314;2023-08-17T00:46:28;18.30;1.00
18160;DHT22;9205;52.032;4.314;2023-08-17T00:48:56;18.20;1.00
18160;DHT22;9205;52.032;4.314;2023-08-17T00:51:26;18.20;1.00
18160;DHT22;9205;52.032;4.314;2023-08-17T00:53:58;18.20;1.00
18160;DHT22;9205;52.032;4.314;2023-08-17T00:56:26;18.20;1.00
18160;DHT22;9205;52.032;4.314;2023-08-17T00:58:56;18.10;1.00
18160;DHT22;9205;52.032;4.314;2023-08-17T01:01:24;18.20;1.00
18160;DHT22;9205;52.032;4.314;2023-08-17T01:03:51;18.20;1.00
18160;DHT22;9205;52.032;4.314;2023-08-17T01:06:19;18.10;1.00
18160;DHT22;9205;52.032;4.314;2023-08-17T01:08:46;18.00;1.00
18160;DHT22;9205;52.032;4.314;2023-08-17T01:11:20;18.10;1.00
18160;DHT22;9205;52.032;4.314;2023-08-17T01:13:58;18.10;1.00
18160;DHT22;9205;52.032;4.314;2023-08-17T01:16:33;18.00;1.00
18160;DHT22;9205;52.032;4.314;2023-08-17T01:19:08;18.10;1.00
18160;DHT22;9205;52.032;4.314;2023-08-17T01:21:41;18.10;1.00
18160;DHT22;9205;52.032;4.314;2023-08-17T01:24:12;18.10;1.00
18160;DHT22;9205;52.032;4.314;2023-08-17T01:26:41;18.00;1.00
18160;DHT22;9205;52.032;4.314;2023-08-17T01:29:08;18.00;1.00
18160;DHT22;9205;52.032;4.314;2023-08-17T01:31:41;18.00;1.00
18160;DHT22;9205;52.032;4.314;2023-08-17T01:34:19;18.00;1.00
18160;DHT22;9205;52.032;4.314;2023-08-17T01:36:53;18.00;1.00
18160;DHT22;9205;52.032;4.314;2023-08-17T01:39:30;18.00;1.00
18160;DHT22;9205;52.032;4.314;2023-08-17T01:42:05;18.00;1.00
18160;DHT22;9205;52.032;4.314;2023-08-17T01:44:34;17.90;1.00
18160;DHT22;9205;52.032;4.314;2023-08-17T01:47:01;17.90;1.00
18160;DHT22;9205;52.032;4.314;2023-08-17T01:49:29;17.90;1.00
18160;DHT22;9205;52.032;4.314;2023-08-17T01:51:56;17.90;1.00
18160;DHT22;9205;52.032;4.314;2023-08-17T01:54:24;17.90;1.00
18160;DHT22;9205;52.032;4.314;2023-08-17T01:56:52;17.90;1.00
18160;DHT22;9205;52.032;4.314;2023-08-17T01:59:19;17.80;1.00
18160;DHT22;9205;52.032;4.314;2023-08-17T02:01:47;17.90;1.00
18160;DHT22;9205;52.032;4.314;2023-08-17T02:04:15;17.90;1.00
18160;DHT22;9205;52.032;4.314;2023-08-17T02:06:42;17.80;1.00
18160;DHT22;9205;52.032;4.314;2023-08-17T02:09:10;17.80;1.00
18160;DHT22;9205;52.032;4.314;2023-08-17T02:11:37;17.70;1.00
18160;DHT22;9205;52.032;4.314;2023-08-17T02:14:05;17.80;1.00
18160;DHT22;9205;52.032;4.314;2023-08-17T02:16:33;17.80;1.00
18160;DHT22;9205;52.032;4.314;2023-08-17T02:19:00;17.70;1.00
18160;DHT22;9205;52.032;4.314;2023-08-17T02:21:27;17.70;1.00
18160;DHT22;9205;52.032;4.314;2023-08-17T02:23:54;17.70;1.00
18160;DHT22;9205;52.032;4.314;2023-08-17T02:26:22;17.70;1.00
18160;DHT22;9205;52.032;4.314;2023-08-17T02:28:49;17.70;1.00
18160;DHT22;9205;52.032;4.314;2023-08-17T02:31:18;17.70;1.00
18160;DHT22;9205;52.032;4.314;2023-08-17T02:33:45;17.70;1.00
18160;DHT22;9205;52.032;4.314;2023-08-17T02:36:12;17.70;1.00
18160;DHT22;9205;52.032;4.314;2023-08-17T02:38:40;17.70;1.00
18160;DHT22;9205;52.032;4.314;2023-08-17T02:41:07;17.70;1.00
18160;DHT22;9205;52.032;4.314;2023-08-17T02:43:34;17.70;1.00
18160;DHT22;9205;52.032;4.314;2023-08-17T02:46:01;17.70;1.00
18160;DHT22;9205;52.032;4.314;2023-08-17T02:48:30;17.60;1.00
18160;DHT22;9205;52.032;4.314;2023-08-17T02:50:58;17.50;1.00
18160;DHT22;9205;52.032;4.314;2023-08-17T02:53:25;17.50;1.00
18160;DHT22;9205;52.032;4.314;2023-08-17T02:55:52;17.60;1.00
18160;DHT22;9205;52.032;4.314;2023-08-17T02:58:19;17.60;1.00
18160;DHT22;9205;52.032;4.314;2023-08-17T03:00:46;17.60;1.00
18160;DHT22;9205;52.032;4.314;2023-08-17T03:03:14;17.60;1.00
18160;DHT22;9205;52.032;4.314;2023-08-17T03:05:42;17.70;1.00
18160;DHT22;9205;52.032;4.314;2023-08-17T03:08:10;17.50;1.00
18160;DHT22;9205;52.032;4.314;2023-08-17T03:10:37;17.60;1.00
18160;DHT22;9205;52.032;4.314;2023-08-17T03:13:04;17.50;1.00
18160;DHT22;9205;52.032;4.314;2023-08-17T03:15:32;17.50;1.00
18160;DHT22;9205;52.032;4.314;2023-08-17T03:17:59;17.40;1.00
18160;DHT22;9205;52.032;4.314;2023-08-17T03:20:26;17.40;1.00
18160;DHT22;9205;52.032;4.314;2023-08-17T03:22:55;17.50;1.00
18160;DHT22;9205;52.032;4.314;2023-08-17T03:25:23;17.40;1.00
18160;DHT22;9205;52.032;4.314;2023-08-17T03:27:50;17.40;1.00
18160;DHT22;9205;52.032;4.314;2023-08-17T03:30:17;17.40;1.00
18160;DHT22;9205;52.032;4.314;2023-08-17T03:32:44;17.40;1.00
18160;DHT22;9205;52.032;4.314;2023-08-17T03:35:12;17.40;1.00
18160;DHT22;9205;52.032;4.314;2023-08-17T03:37:40;17.40;1.00
18160;DHT22;9205;52.032;4.314;2023-08-17T03:40:10;17.40;1.00
18160;DHT22;9205;52.032;4.314;2023-08-17T03:42:38;17.50;1.00
18160;DHT22;9205;52.032;4.314;2023-08-17T03:45:06;17.40;1.00
18160;DHT22;9205;52.032;4.314;2023-08-17T03:47:33;17.40;1.00
18160;DHT22;9205;52.032;4.314;2023-08-17T03:50:01;17.50;1.00
18160;DHT22;9205;52.032;4.314;2023-08-17T03:52:29;17.50;1.00
18160;DHT22;9205;52.032;4.314;2023-08-17T03:54:56;17.40;1.00
18160;DHT22;9205;52.032;4.314;2023-08-17T03:57:25;17.40;1.00
18160;DHT22;9205;52.032;4.314;2023-08-17T03:59:52;17.40;1.00
18160;DHT22;9205;52.032;4.314;2023-08-17T04:02:19;17.40;1.00
18160;DHT22;9205;52.032;4.314;2023-08-17T04:04:46;17.40;1.00
18160;DHT22;9205;52.032;4.314;2023-08-17T04:07:20;17.30;1.00
18160;DHT22;9205;52.032;4.314;2023-08-17T04:09:48;17.40;1.00
18160;DHT22;9205;52.032;4.314;2023-08-17T04:12:16;17.40;1.00
18160;DHT22;9205;52.032;4.314;2023-08-17T04:14:44;17.40;1.00
18160;DHT22;9205;52.032;4.314;2023-08-17T04:17:12;17.40;1.00
18160;DHT22;9205;52.032;4.314;2023-08-17T04:19:39;17.40;1.00
18160;DHT22;9205;52.032;4.314;2023-08-17T04:22:08;17.30;1.00
18160;DHT22;9205;52.032;4.314;2023-08-17T04:24:35;17.20;1.00
18160;DHT22;9205;52.032;4.314;2023-08-17T04:27:03;17.40;1.00
18160;DHT22;9205;52.032;4.314;2023-08-17T04:29:31;17.30;1.00
18160;DHT22;9205;52.032;4.314;2023-08-17T04:32:02;17.30;1.00
18160;DHT22;9205;52.032;4.314;2023-08-17T04:34:30;17.20;1.00
18160;DHT22;9205;52.032;4.314;2023-08-17T04:36:57;17.30;1.00
18160;DHT22;9205;52.032;4.314;2023-08-17T04:39:24;17.20;1.00
18160;DHT22;9205;52.032;4.314;2023-08-17T04:41:52;17.20;1.00
18160;DHT22;9205;52.032;4.314;2023-08-17T04:44:25;17.30;1.00
18160;DHT22;9205;52.032;4.314;2023-08-17T04:46:52;17.30;1.00
18160;DHT22;9205;52.032;4.314;2023-08-17T04:49:21;17.20;1.00
18160;DHT22;9205;52.032;4.314;2023-08-17T04:51:48;17.20;1.00
18160;DHT22;9205;52.032;4.314;2023-08-17T04:54:15;17.30;1.00
18160;DHT22;9205;52.032;4.314;2023-08-17T04:56:43;17.30;1.00
18160;DHT22;9205;52.032;4.314;2023-08-17T04:59:10;17.30;1.00
18160;DHT22;9205;52.032;4.314;2023-08-17T05:01:38;17.40;1.00
18160;DHT22;9205;52.032;4.314;2023-08-17T05:04:06;17.40;1.00
18160;DHT22;9205;52.032;4.314;2023-08-17T05:06:35;17.40;1.00
18160;DHT22;9205;52.032;4.314;2023-08-17T05:09:04;17.40;1.00
18160;DHT22;9205;52.032;4.314;2023-08-17T05:11:33;17.50;1.00
18160;DHT22;9205;52.032;4.314;2023-08-17T05:14:00;17.40;1.00
18160;DHT22;9205;52.032;4.314;2023-08-17T05:16:28;17.50;1.00
18160;DHT22;9205;52.032;4.314;2023-08-17T05:18:56;17.40;1.00
18160;DHT22;9205;52.032;4.314;2023-08-17T05:21:25;17.40;1.00
18160;DHT22;9205;52.032;4.314;2023-08-17T05:23:53;17.40;1.00
18160;DHT22;9205;52.032;4.314;2023-08-17T05:26:21;17.40;1.00
18160;DHT22;9205;52.032;4.314;2023-08-17T05:28:48;17.40;1.00
18160;DHT22;9205;52.032;4.314;2023-08-17T05:31:15;17.50;1.00
18160;DHT22;9205;52.032;4.314;2023-08-17T05:33:46;17.50;1.00
18160;DHT22;9205;52.032;4.314;2023-08-17T05:36:13;17.40;1.00
18160;DHT22;9205;52.032;4.314;2023-08-17T05:38:40;17.60;1.00
18160;DHT22;9205;52.032;4.314;2023-08-17T05:41:09;17.70;1.00
18160;DHT22;9205;52.032;4.314;2023-08-17T05:43:36;17.50;1.00
18160;DHT22;9205;52.032;4.314;2023-08-17T05:46:04;17.50;1.00
18160;DHT22;9205;52.032;4.314;2023-08-17T05:48:32;17.50;1.00
18160;DHT22;9205;52.032;4.314;2023-08-17T05:50:59;17.60;1.00
18160;DHT22;9205;52.032;4.314;2023-08-17T05:53:27;17.60;1.00
18160;DHT22;9205;52.032;4.314;2023-08-17T05:55:54;17.70;1.00
18160;DHT22;9205;52.032;4.314;2023-08-17T05:58:22;17.60;1.00
18160;DHT22;9205;52.032;4.314;2023-08-17T06:00:49;17.80;1.00
18160;DHT22;9205;52.032;4.314;2023-08-17T06:03:17;17.80;1.00
18160;DHT22;9205;52.032;4.314;2023-08-17T06:05:44;17.90;1.00
18160;DHT22;9205;52.032;4.314;2023-08-17T06:08:11;17.90;1.00
18160;DHT22;9205;52.032;4.314;2023-08-17T06:10:38;17.90;1.00
18160;DHT22;9205;52.032;4.314;2023-08-17T06:13:05;18.00;1.00
18160;DHT22;9205;52.032;4.314;2023-08-17T06:15:34;18.00;1.00
18160;DHT22;9205;52.032;4.314;2023-08-17T06:18:01;18.00;1.00
18160;DHT22;9205;52.032;4.314;2023-08-17T06:20:28;18.00;1.00
18160;DHT22;9205;52.032;4.314;2023-08-17T06:22:56;18.10;1.00
18160;DHT22;9205;52.032;4.314;2023-08-17T06:25:23;18.10;1.00
18160;DHT22;9205;52.032;4.314;2023-08-17T06:27:51;18.20;1.00
18160;DHT22;9205;52.032;4.314;2023-08-17T06:30:19;18.30;1.00
18160;DHT22;9205;52.032;4.314;2023-08-17T06:32:48;18.30;1.00
18160;DHT22;9205;52.032;4.314;2023-08-17T06:35:17;18.30;1.00
18160;DHT22;9205;52.032;4.314;2023-08-17T06:37:44;18.10;1.00
18160;DHT22;9205;52.032;4.314;2023-08-17T06:40:11;18.20;1.00
18160;DHT22;9205;52.032;4.314;2023-08-17T06:42:39;18.30;1.00
18160;DHT22;9205;52.032;4.314;2023-08-17T06:45:07;18.30;1.00
18160;DHT22;9205;52.032;4.314;2023-08-17T06:47:34;18.10;1.00
18160;DHT22;9205;52.032;4.314;2023-08-17T06:50:04;18.20;1.00
18160;DHT22;9205;52.032;4.314;2023-08-17T06:52:31;18.10;1.00
18160;DHT22;9205;52.032;4.314;2023-08-17T06:55:00;18.20;1.00
18160;DHT22;9205;52.032;4.314;2023-08-17T06:57:27;18.30;1.00
18160;DHT22;9205;52.032;4.314;2023-08-17T06:59:55;18.30;1.00
18160;DHT22;9205;52.032;4.314;2023-08-17T07:02:22;18.40;1.00
18160;DHT22;9205;52.032;4.314;2023-08-17T07:04:49;18.30;1.00
18160;DHT22;9205;52.032;4.314;2023-08-17T07:07:18;18.40;1.00
18160;DHT22;9205;52.032;4.314;2023-08-17T07:09:45;18.50;1.00
18160;DHT22;9205;52.032;4.314;2023-08-17T07:12:12;18.50;1.00
18160;DHT22;9205;52.032;4.314;2023-08-17T07:14:39;18.70;1.00
18160;DHT22;9205;52.032;4.314;2023-08-17T07:17:06;18.60;1.00
18160;DHT22;9205;52.032;4.314;2023-08-17T07:19:34;18.70;1.00
18160;DHT22;9205;52.032;4.314;2023-08-17T07:22:01;18.70;1.00
18160;DHT22;9205;52.032;4.314;2023-08-17T07:24:29;18.70;1.00
18160;DHT22;9205;52.032;4.314;2023-08-17T07:26:56;18.70;1.00
18160;DHT22;9205;52.032;4.314;2023-08-17T07:29:24;18.80;1.00
18160;DHT22;9205;52.032;4.314;2023-08-17T07:31:51;18.90;1.00
18160;DHT22;9205;52.032;4.314;2023-08-17T07:34:19;18.90;1.00
18160;DHT22;9205;52.032;4.314;2023-08-17T07:36:47;19.00;1.00
18160;DHT22;9205;52.032;4.314;2023-08-17T07:39:14;19.10;1.00
18160;DHT22;9205;52.032;4.314;2023-08-17T07:41:42;19.20;1.00
18160;DHT22;9205;52.032;4.314;2023-08-17T07:44:10;19.20;1.00
18160;DHT22;9205;52.032;4.314;2023-08-17T07:46:38;19.30;1.00
18160;DHT22;9205;52.032;4.314;2023-08-17T07:49:05;19.40;1.00
18160;DHT22;9205;52.032;4.314;2023-08-17T07:51:32;19.40;1.00
18160;DHT22;9205;52.032;4.314;2023-08-17T07:54:00;19.40;1.00
18160;DHT22;9205;52.032;4.314;2023-08-17T07:56:27;19.30;1.00
18160;DHT22;9205;52.032;4.314;2023-08-17T07:58:56;19.30;1.00
18160;DHT22;9205;52.032;4.314;2023-08-17T08:01:24;19.50;1.00
18160;DHT22;9205;52.032;4.314;2023-08-17T08:03:51;19.40;1.00
18160;DHT22;9205;52.032;4.314;2023-08-17T08:06:18;19.40;1.00
18160;DHT22;9205;52.032;4.314;2023-08-17T08:08:46;19.50;1.00
18160;DHT22;9205;52.032;4.314;2023-08-17T08:11:13;19.40;1.00
18160;DHT22;9205;52.032;4.314;2023-08-17T08:13:41;19.40;1.00
18160;DHT22;9205;52.032;4.314;2023-08-17T08:16:09;19.50;1.00
18160;DHT22;9205;52.032;4.314;2023-08-17T08:18:36;19.50;1.00
18160;DHT22;9205;52.032;4.314;2023-08-17T08:21:03;19.50;1.00
18160;DHT22;9205;52.032;4.314;2023-08-17T08:23:31;19.50;1.00
18160;DHT22;9205;52.032;4.314;2023-08-17T08:25:58;19.60;1.00
18160;DHT22;9205;52.032;4.314;2023-08-17T08:28:25;19.50;1.00
18160;DHT22;9205;52.032;4.314;2023-08-17T08:30:52;19.50;1.00
18160;DHT22;9205;52.032;4.314;2023-08-17T08:33:21;19.60;1.00
18160;DHT22;9205;52.032;4.314;2023-08-17T08:35:48;19.60;1.00
18160;DHT22;9205;52.032;4.314;2023-08-17T08:38:15;19.80;1.00
18160;DHT22;9205;52.032;4.314;2023-08-17T08:40:43;19.90;1.00
18160;DHT22;9205;52.032;4.314;2023-08-17T08:43:13;19.80;1.00
18160;DHT22;9205;52.032;4.314;2023-08-17T08:45:42;19.80;1.00
18160;DHT22;9205;52.032;4.314;2023-08-17T08:48:11;19.90;1.00
18160;DHT22;9205;52.032;4.314;2023-08-17T08:50:41;20.00;1.00
18160;DHT22;9205;52.032;4.314;2023-08-17T08:53:11;20.00;1.00
18160;DHT22;9205;52.032;4.314;2023-08-17T08:55:47;20.10;1.00
18160;DHT22;9205;52.032;4.314;2023-08-17T08:58:21;20.20;1.00
18160;DHT22;9205;52.032;4.314;2023-08-17T09:00:49;20.30;1.00
18160;DHT22;9205;52.032;4.314;2023-08-17T09:03:16;20.30;1.00
18160;DHT22;9205;52.032;4.314;2023-08-17T09:05:48;20.30;1.00
18160;DHT22;9205;52.032;4.314;2023-08-17T09:08:22;20.40;1.00
18160;DHT22;9205;52.032;4.314;2023-08-17T09:10:52;20.40;1.00
18160;DHT22;9205;52.032;4.314;2023-08-17T09:13:19;20.60;1.00
18160;DHT22;9205;52.032;4.314;2023-08-17T09:15:47;20.60;1.00
18160;DHT22;9205;52.032;4.314;2023-08-17T09:18:15;20.60;1.00
18160;DHT22;9205;52.032;4.314;2023-08-17T09:20:44;20.60;1.00
18160;DHT22;9205;52.032;4.314;2023-08-17T09:23:15;20.60;1.00
18160;DHT22;9205;52.032;4.314;2023-08-17T09:25:46;20.70;1.00
18160;DHT22;9205;52.032;4.314;2023-08-17T09:28:15;20.90;1.00
18160;DHT22;9205;52.032;4.314;2023-08-17T09:30:55;20.90;1.00
18160;DHT22;9205;52.032;4.314;2023-08-17T09:33:25;20.90;1.00
18160;DHT22;9205;52.032;4.314;2023-08-17T09:35:56;20.90;1.00
18160;DHT22;9205;52.032;4.314;2023-08-17T09:38:24;20.90;1.00
18160;DHT22;9205;52.032;4.314;2023-08-17T09:40:52;20.90;99.90
18160;DHT22;9205;52.032;4.314;2023-08-17T09:43:20;20.90;99.90
18160;DHT22;9205;52.032;4.314;2023-08-17T09:45:48;20.90;99.90
18160;DHT22;9205;52.032;4.314;2023-08-17T09:48:16;20.90;99.90
18160;DHT22;9205;52.032;4.314;2023-08-17T09:50:45;21.00;99.90
18160;DHT22;9205;52.032;4.314;2023-08-17T09:53:15;21.00;99.90
18160;DHT22;9205;52.032;4.314;2023-08-17T09:55:45;21.00;99.90
18160;DHT22;9205;52.032;4.314;2023-08-17T09:58:14;21.10;99.90
18160;DHT22;9205;52.032;4.314;2023-08-17T10:00:43;21.30;99.90
18160;DHT22;9205;52.032;4.314;2023-08-17T10:03:13;21.20;99.90
18160;DHT22;9205;52.032;4.314;2023-08-17T10:05:43;21.10;99.90
18160;DHT22;9205;52.032;4.314;2023-08-17T10:08:18;21.20;99.90
18160;DHT22;9205;52.032;4.314;2023-08-17T10:10:47;21.30;99.90
18160;DHT22;9205;52.032;4.314;2023-08-17T10:13:21;21.40;99.90
18160;DHT22;9205;52.032;4.314;2023-08-17T10:16:02;21.50;99.90
18160;DHT22;9205;52.032;4.314;2023-08-17T10:18:35;21.40;99.90
18160;DHT22;9205;52.032;4.314;2023-08-17T10:21:13;21.50;99.90
18160;DHT22;9205;52.032;4.314;2023-08-17T10:23:46;21.40;99.90
18160;DHT22;9205;52.032;4.314;2023-08-17T10:26:14;21.30;99.90
18160;DHT22;9205;52.032;4.314;2023-08-17T10:28:45;21.50;99.90
18160;DHT22;9205;52.032;4.314;2023-08-17T10:31:14;21.60;99.90
18160;DHT22;9205;52.032;4.314;2023-08-17T10:33:42;21.80;99.90
18160;DHT22;9205;52.032;4.314;2023-08-17T10:36:13;21.90;99.90
18160;DHT22;9205;52.032;4.314;2023-08-17T10:38:42;21.90;99.90
18160;DHT22;9205;52.032;4.314;2023-08-17T10:41:11;22.10;99.90
18160;DHT22;9205;52.032;4.314;2023-08-17T10:43:53;22.00;99.90
18160;DHT22;9205;52.032;4.314;2023-08-17T10:46:32;22.00;99.90
18160;DHT22;9205;52.032;4.314;2023-08-17T10:49:03;22.00;99.90
18160;DHT22;9205;52.032;4.314;2023-08-17T10:51:32;22.20;99.90
18160;DHT22;9205;52.032;4.314;2023-08-17T10:54:02;22.20;23.00
18160;DHT22;9205;52.032;4.314;2023-08-17T10:56:32;22.30;99.90
18160;DHT22;9205;52.032;4.314;2023-08-17T10:59:01;22.20;94.50
18160;DHT22;9205;52.032;4.314;2023-08-17T11:01:32;22.10;93.30
18160;DHT22;9205;52.032;4.314;2023-08-17T11:04:11;22.20;15.00
18160;DHT22;9205;52.032;4.314;2023-08-17T11:06:42;22.10;1.00
18160;DHT22;9205;52.032;4.314;2023-08-17T11:09:10;22.20;58.90
18160;DHT22;9205;52.032;4.314;2023-08-17T11:11:39;22.50;99.90
18160;DHT22;9205;52.032;4.314;2023-08-17T11:14:08;22.80;99.90
18160;DHT22;9205;52.032;4.314;2023-08-17T11:16:35;22.80;20.40
18160;DHT22;9205;52.032;4.314;2023-08-17T11:19:03;22.50;1.00
18160;DHT22;9205;52.032;4.314;2023-08-17T11:21:30;22.30;1.00
18160;DHT22;9205;52.032;4.314;2023-08-17T11:23:58;22.20;1.00
18160;DHT22;9205;52.032;4.314;2023-08-17T11:26:26;22.20;1.00
18160;DHT22;9205;52.032;4.314;2023-08-17T11:28:55;22.30;1.00
18160;DHT22;9205;52.032;4.314;2023-08-17T11:31:23;22.30;1.00
18160;DHT22;9205;52.032;4.314;2023-08-17T11:33:52;22.50;1.30
18160;DHT22;9205;52.032;4.314;2023-08-17T11:36:19;22.60;1.00
18160;DHT22;9205;52.032;4.314;2023-08-17T11:38:48;22.50;1.00
18160;DHT22;9205;52.032;4.314;2023-08-17T11:41:15;22.50;1.00
18160;DHT22;9205;52.032;4.314;2023-08-17T11:43:44;22.40;1.00
18160;DHT22;9205;52.032;4.314;2023-08-17T11:46:15;22.30;5.80
18160;DHT22;9205;52.032;4.314;2023-08-17T11:48:43;22.30;1.00
18160;DHT22;9205;52.032;4.314;2023-08-17T11:51:11;22.30;55.40
18160;DHT22;9205;52.032;4.314;2023-08-17T11:53:39;22.40;9.90
18160;DHT22;9205;52.032;4.314;2023-08-17T11:56:06;22.60;33.00
18160;DHT22;9205;52.032;4.314;2023-08-17T11:58:40;22.60;3.70
18160;DHT22;9205;52.032;4.314;2023-08-17T12:01:12;22.80;1.90
18160;DHT22;9205;52.032;4.314;2023-08-17T12:03:41;23.20;58.50
18160;DHT22;9205;52.032;4.314;2023-08-17T12:06:09;23.20;1.00
18160;DHT22;9205;52.032;4.314;2023-08-17T12:08:38;23.60;1.00
18160;DHT22;9205;52.032;4.314;2023-08-17T12:11:08;23.90;1.00
18160;DHT22;9205;52.032;4.314;2023-08-17T12:13:35;23.60;1.00
18160;DHT22;9205;52.032;4.314;2023-08-17T12:16:03;23.50;1.00
18160;DHT22;9205;52.032;4.314;2023-08-17T12:18:33;23.40;1.00
18160;DHT22;9205;52.032;4.314;2023-08-17T12:21:01;23.40;1.00
18160;DHT22;9205;52.032;4.314;2023-08-17T12:23:32;23.50;1.00
18160;DHT22;9205;52.032;4.314;2023-08-17T12:26:00;23.30;1.00
18160;DHT22;9205;52.032;4.314;2023-08-17T12:28:29;23.30;1.00
18160;DHT22;9205;52.032;4.314;2023-08-17T12:30:58;23.40;1.00
18160;DHT22;9205;52.032;4.314;2023-08-17T12:33:26;23.50;1.00
18160;DHT22;9205;52.032;4.314;2023-08-17T12:35:56;23.50;1.00
18160;DHT22;9205;52.032;4.314;2023-08-17T12:38:24;23.30;1.00
18160;DHT22;9205;52.032;4.314;2023-08-17T12:40:51;23.30;1.00
18160;DHT22;9205;52.032;4.314;2023-08-17T12:43:19;23.40;1.00
18160;DHT22;9205;52.032;4.314;2023-08-17T12:45:46;23.30;1.00
18160;DHT22;9205;52.032;4.314;2023-08-17T12:48:13;23.30;1.00
18160;DHT22;9205;52.032;4.314;2023-08-17T12:50:41;23.20;1.00
18160;DHT22;9205;52.032;4.314;2023-08-17T12:53:09;23.30;1.00
18160;DHT22;9205;52.032;4.314;2023-08-17T12:55:39;23.40;1.00
18160;DHT22;9205;52.032;4.314;2023-08-17T12:58:08;23.40;1.00
18160;DHT22;9205;52.032;4.314;2023-08-17T13:00:35;23.40;1.00
18160;DHT22;9205;52.032;4.314;2023-08-17T13:03:03;23.40;1.00
18160;DHT22;9205;52.032;4.314;2023-08-17T13:05:31;23.50;1.00
18160;DHT22;9205;52.032;4.314;2023-08-17T13:07:59;23.70;1.00
18160;DHT22;9205;52.032;4.314;2023-08-17T13:10:28;23.70;1.00
18160;DHT22;9205;52.032;4.314;2023-08-17T13:12:56;23.70;1.00
18160;DHT22;9205;52.032;4.314;2023-08-17T13:15:25;23.40;1.00
18160;DHT22;9205;52.032;4.314;2023-08-17T13:17:52;23.50;1.00
18160;DHT22;9205;52.032;4.314;2023-08-17T13:20:19;23.40;1.00
18160;DHT22;9205;52.032;4.314;2023-08-17T13:22:47;23.40;1.00
18160;DHT22;9205;52.032;4.314;2023-08-17T13:25:15;23.10;1.00
18160;DHT22;9205;52.032;4.314;2023-08-17T13:27:44;22.90;1.00
18160;DHT22;9205;52.032;4.314;2023-08-17T13:30:11;22.90;1.00
18160;DHT22;9205;52.032;4.314;2023-08-17T13:32:39;22.80;1.00
18160;DHT22;9205;52.032;4.314;2023-08-17T13:35:07;23.00;1.00
18160;DHT22;9205;52.032;4.314;2023-08-17T13:37:36;23.00;1.00
18160;DHT22;9205;52.032;4.314;2023-08-17T13:40:04;22.90;1.00
18160;DHT22;9205;52.032;4.314;2023-08-17T13:42:32;22.70;1.00
18160;DHT22;9205;52.032;4.314;2023-08-17T13:45:02;22.60;1.00
18160;DHT22;9205;52.032;4.314;2023-08-17T13:47:30;22.60;1.00
18160;DHT22;9205;52.032;4.314;2023-08-17T13:49:57;22.60;1.00
18160;DHT22;9205;52.032;4.314;2023-08-17T13:52:24;22.60;1.00
18160;DHT22;9205;52.032;4.314;2023-08-17T13:54:51;22.60;1.00
18160;DHT22;9205;52.032;4.314;2023-08-17T13:57:18;22.80;8.70
18160;DHT22;9205;52.032;4.314;2023-08-17T13:59:46;22.50;1.00
18160;DHT22;9205;52.032;4.314;2023-08-17T14:02:15;22.50;1.00
18160;DHT22;9205;52.032;4.314;2023-08-17T14:04:42;22.40;1.00
18160;DHT22;9205;52.032;4.314;2023-08-17T14:07:09;22.30;1.00
18160;DHT22;9205;52.032;4.314;2023-08-17T14:09:36;22.30;13.50
18160;DHT22;9205;52.032;4.314;2023-08-17T14:12:04;22.30;35.80
18160;DHT22;9205;52.032;4.314;2023-08-17T14:14:32;22.20;93.60
18160;DHT22;9205;52.032;4.314;2023-08-17T14:16:59;22.20;52.80
18160;DHT22;9205;52.032;4.314;2023-08-17T14:19:29;22.00;35.80
18160;DHT22;9205;52.032;4.314;2023-08-17T14:21:57;22.00;99.90
18160;DHT22;9205;52.032;4.314;2023-08-17T14:24:26;22.10;99.90
18160;DHT22;9205;52.032;4.314;2023-08-17T14:26:53;22.00;99.90
18160;DHT22;9205;52.032;4.314;2023-08-17T14:29:22;22.20;99.90
18160;DHT22;9205;52.032;4.314;2023-08-17T14:31:49;22.10;99.90
18160;DHT22;9205;52.032;4.314;2023-08-17T14:34:16;22.00;99.90
18160;DHT22;9205;52.032;4.314;2023-08-17T14:36:46;22.10;99.90
18160;DHT22;9205;52.032;4.314;2023-08-17T14:39:13;22.10;99.90
18160;DHT22;9205;52.032;4.314;2023-08-17T14:41:40;22.10;99.90
18160;DHT22;9205;52.032;4.314;2023-08-17T14:44:08;22.10;99.90
18160;DHT22;9205;52.032;4.314;2023-08-17T14:46:35;22.10;99.90
18160;DHT22;9205;52.032;4.314;2023-08-17T14:49:04;22.00;99.90
18160;DHT22;9205;52.032;4.314;2023-08-17T14:51:37;21.80;99.90
18160;DHT22;9205;52.032;4.314;2023-08-17T14:54:06;21.90;99.90
18160;DHT22;9205;52.032;4.314;2023-08-17T14:56:35;22.00;99.90
18160;DHT22;9205;52.032;4.314;2023-08-17T14:59:02;21.90;99.90
18160;DHT22;9205;52.032;4.314;2023-08-17T15:01:30;21.90;99.90
18160;DHT22;9205;52.032;4.314;2023-08-17T15:03:57;22.00;99.90
18160;DHT22;9205;52.032;4.314;2023-08-17T15:06:25;22.00;99.90
18160;DHT22;9205;52.032;4.314;2023-08-17T15:08:52;21.90;99.90
18160;DHT22;9205;52.032;4.314;2023-08-17T15:11:20;21.80;99.90
18160;DHT22;9205;52.032;4.314;2023-08-17T15:13:48;21.90;99.90
18160;DHT22;9205;52.032;4.314;2023-08-17T15:16:15;22.00;99.90
18160;DHT22;9205;52.032;4.314;2023-08-17T15:18:45;21.90;99.90
18160;DHT22;9205;52.032;4.314;2023-08-17T15:21:12;22.00;99.90
18160;DHT22;9205;52.032;4.314;2023-08-17T15:23:39;21.90;99.90
18160;DHT22;9205;52.032;4.314;2023-08-17T15:26:07;21.80;99.90
18160;DHT22;9205;52.032;4.314;2023-08-17T15:28:38;21.80;99.90
18160;DHT22;9205;52.032;4.314;2023-08-17T15:31:07;21.80;99.90
18160;DHT22;9205;52.032;4.314;2023-08-17T15:33:37;21.80;99.90
18160;DHT22;9205;52.032;4.314;2023-08-17T15:36:05;21.80;99.90
18160;DHT22;9205;52.032;4.314;2023-08-17T15:38:33;21.70;99.90
18160;DHT22;9205;52.032;4.314;2023-08-17T15:41:01;21.60;99.90
18160;DHT22;9205;52.032;4.314;2023-08-17T15:43:29;21.50;99.90
18160;DHT22;9205;52.032;4.314;2023-08-17T15:45:57;21.50;99.90
18160;DHT22;9205;52.032;4.314;2023-08-17T15:48:25;21.60;99.90
18160;DHT22;9205;52.032;4.314;2023-08-17T15:50:52;21.60;99.90
18160;DHT22;9205;52.032;4.314;2023-08-17T15:53:19;21.50;99.90
18160;DHT22;9205;52.032;4.314;2023-08-17T15:55:46;21.60;99.90
18160;DHT22;9205;52.032;4.314;2023-08-17T15:58:14;21.60;99.90
18160;DHT22;9205;52.032;4.314;2023-08-17T16:00:41;21.70;99.90
18160;DHT22;9205;52.032;4.314;2023-08-17T16:03:09;21.70;99.90
18160;DHT22;9205;52.032;4.314;2023-08-17T16:05:37;21.70;99.90